Inicio METAR Ruta Wind Satelite

Informe Meteorológico

Fecha: 2024/06/18 20:56:25 Local
2024.06.19 01:56 UTC


Operación:VFR
SKBQ 190100Z 28003KT 240V320 9999 FEW015 24/23 Q1008 NOSIG =

SKBQ 190000Z VRB03KT 9999 VCSH FEW015 24/23 Q1007 NOSIG RMK VCSH/N
SKBQ 182300Z 23007KT 190V260 9999 VCSH SCT015 24/22 Q1008 RERA NOSIG RMK VCSH/E/N
SKBQ 182229Z 19008KT 170V250 8000 RA SCT015 FEW020CB 25/22 Q1009 BECMG FM2300Z 5000 TSRA RMK CB/S
SKBQ 182213Z 21014KT 9999 VCSH BKN015CB 26/22 Q1008 NOSIG RMK CB VCSH/SE/S
SKBQ 182200Z VRB04KT 9999 VCSH BKN015CB 27/23 Q1007 BECMG FM2230 TS RMK CB VCSH/SE/S

2024/06/18 18:42
TAF SKBQ 181630Z 1818/1918 VRB04KT 9999 FEW015 PROB40
TEMPO 1817/1821 TSRA FEW012CB
TEMPO 1910/1913 4000 BR BKN008
BECMG 1913/1915 04012KT TX34/1820Z TN26/1910Z